Airfield :
LOGIN :

Register | Disclaimer

   EN    FR    IT 

 










Legend :    VFR   Marginal VFR   IFR   Intensive IFR   Very Intensive IFR
Visi :
Ceiling :
>= 8 km
>= 3000ft
5 to 8 km
1000 to 3000 ft
1500m to 5 km
500 to 1000 ft
800 to 1500m
200 to 500 ft
< 800m
< 200 ft
Symbols :   Thunderstorms  Fog  Heavy snow  Heavy precipitations  Wind > 20 kt
SIGMETs :     Misc.  Thunderstorms  Icing  Turbulence  Mountain Waves  Volcanic Ashes






- Airport Elevation : 268 ft
- IATA code : BFS


EGAA - Belfast Aldergrove

CURRENT METAR :
  • 141950Z 26008KT 3600 DZ BKN004 12/12 Q1015

EXPIRED METARs :
  • 141920Z 25009KT 2100 -RA SCT003 BKN006 12/12 Q1015
  • 141850Z 25009KT 3600 RADZ SCT004 BKN008 BKN015 13/12 Q1015
  • 141820Z 25011KT 4000 -RADZ FEW007 SCT011 BKN022 13/12 Q1015
  • 141750Z 25012KT 9999 SCT005 BKN009 13/12 Q1015 REDZ
  • 141720Z 25010KT 9000 -RA SCT007 BKN011 13/12 Q1015

TAF AMD TAF EGAA
Valid from the 14 at 20:00 until the 15 at 18:00 UTC


141957Z 1420/1518 27008KT 9999 SCT006 BKN015
TEMPO 1420/1510 7000 RA -RADZ BKN006
PROB40
TEMPO 1420/1510 3000 DZ BKN003
PROB40
TEMPO 1510/1518 7000 -RADZ BKN012



MET'MAP, your aeronautical weather chart ! - Copyright ORBIFLY December 2007 - Disclaimer

ORBIFLY MET'MAP TEAM :

Programming & Development : Alexandra Zaïnal
Concept & original design : Baudouin d'Aumeries
Assistance for programming : Marc-Olivier Méhu
Technical & hardware support : Manuel Goepfert

Contact : metmap@orbifly.com




SOURCES & CREDITS :

   NOAA